Time;durP1;ratioP1;P1;durP2;ratioP2;P2;SDS_P1;SDS_P2;PMS_P1;PMS_P2;Temp;Humidity;BMP_temperature;BMP_pressure;BME280_temperature;BME280_humidity;BME280_pressure;Samples;Min_cycle;Max_cycle;Signal;HPM_P1;HPM_P2
2021/12/04 00:02:09;;;;;;;9.50;2.45;;;-2.60;99.90;;;;;;5068360;28;20052;-50
2021/12/04 00:04:41;;;;;;;14.38;2.45;;;-2.60;99.90;;;;;;5067037;28;20559;-50
2021/12/04 00:07:09;;;;;;;7.65;2.72;;;-2.60;99.90;;;;;;5073059;28;20551;-48
2021/12/04 00:09:36;;;;;;;5.10;2.10;;;-2.50;99.90;;;;;;5073810;28;20040;-48
2021/12/04 00:12:06;;;;;;;;;;;-2.50;99.90;;;;;;5069083;28;20041;-49
2021/12/04 00:14:35;;;;;;;6.80;2.60;;;-2.50;99.90;;;;;;5067272;28;19921;-48
2021/12/04 00:17:04;;;;;;;5.78;2.40;;;-2.50;99.90;;;;;;5071524;28;20123;-48
2021/12/04 00:19:31;;;;;;;4.10;1.65;;;-2.50;99.90;;;;;;5073784;28;20055;-51
2021/12/04 00:21:59;;;;;;;5.03;2.30;;;-2.50;99.90;;;;;;5067844;28;20456;-48
2021/12/04 00:24:27;;;;;;;6.10;2.20;;;-2.50;99.90;;;;;;5068053;28;20040;-49
2021/12/04 00:26:54;;;;;;;4.18;2.08;;;-2.40;99.90;;;;;;5070884;28;20037;-49
2021/12/04 00:29:22;;;;;;;5.53;1.58;;;-2.30;99.90;;;;;;5073460;28;20044;-49
2021/12/04 00:31:55;;;;;;;4.88;2.25;;;-2.30;99.90;;;;;;5067892;28;20049;-51
2021/12/04 00:34:23;;;;;;;4.18;1.90;;;-2.30;99.90;;;;;;5068522;28;20037;-49
2021/12/04 00:37:03;;;;;;;4.50;1.92;;;-2.20;99.90;;;;;;5064234;28;20515;-49
2021/12/04 00:50:33;;;;;;;3.47;1.65;;;-2.10;99.90;;;;;;5063426;28;20036;-49
2021/12/04 00:53:00;;;;;;;4.18;1.85;;;-2.10;99.90;;;;;;5068163;28;20102;-49
2021/12/04 00:55:27;;;;;;;4.30;1.60;;;-2.10;99.90;;;;;;5064433;28;20086;-49
2021/12/04 00:57:54;;;;;;;3.60;1.45;;;-2.10;99.90;;;;;;5073276;28;20040;-49
2021/12/04 01:00:21;;;;;;;4.65;1.63;;;-2.10;99.90;;;;;;5072805;28;20083;-51
2021/12/04 01:02:48;;;;;;;;;;;-2.00;99.90;;;;;;5071495;28;20044;-49
2021/12/04 01:05:15;;;;;;;5.25;1.50;;;-2.00;99.90;;;;;;5071553;28;19920;-52
2021/12/04 01:07:42;;;;;;;3.95;1.70;;;-2.10;99.90;;;;;;5064491;28;20041;-52
2021/12/04 01:10:09;;;;;;;4.07;1.83;;;-2.20;99.90;;;;;;5072749;28;20067;-48
2021/12/04 01:12:36;;;;;;;;;;;-2.20;99.90;;;;;;5073294;28;20044;-49
2021/12/04 01:15:05;;;;;;;10.05;2.20;;;-2.10;99.90;;;;;;5072728;28;20401;-51
2021/12/04 01:17:32;;;;;;;8.32;2.22;;;-2.10;99.90;;;;;;5072383;28;20044;-49
2021/12/04 01:19:59;;;;;;;5.10;1.92;;;-2.00;99.90;;;;;;5072382;28;20060;-50
2021/12/04 01:22:26;;;;;;;5.10;2.53;;;-2.00;99.90;;;;;;5072731;28;20154;-48
2021/12/04 01:24:53;;;;;;;5.47;2.50;;;-1.90;99.90;;;;;;5072724;28;20051;-48
2021/12/04 01:27:20;;;;;;;5.15;2.30;;;-1.90;99.90;;;;;;5072084;28;20064;-48
2021/12/04 01:29:47;;;;;;;4.13;1.83;;;-1.80;99.90;;;;;;5071674;28;20091;-51
2021/12/04 01:32:14;;;;;;;9.70;2.47;;;-1.80;99.90;;;;;;5072198;28;20502;-49
2021/12/04 01:34:41;;;;;;;7.80;2.55;;;-1.80;99.90;;;;;;5072558;28;20067;-49
2021/12/04 01:37:08;;;;;;;9.48;2.40;;;-1.80;99.90;;;;;;5071968;28;20051;-50
2021/12/04 01:39:35;;;;;;;4.93;2.35;;;-1.90;99.90;;;;;;5072338;28;20102;-49
2021/12/04 01:42:02;;;;;;;;;;;-1.90;99.90;;;;;;5072693;28;20123;-49
2021/12/04 01:44:29;;;;;;;4.22;1.77;;;-1.90;99.90;;;;;;5072234;28;19920;-49
2021/12/04 01:46:57;;;;;;;4.03;2.25;;;-2.00;99.90;;;;;;5071484;28;20041;-52
2021/12/04 01:49:24;;;;;;;4.78;2.22;;;-1.90;99.90;;;;;;5072257;28;20094;-50
2021/12/04 01:51:51;;;;;;;3.20;1.75;;;-2.00;99.90;;;;;;5072036;28;20483;-50
2021/12/04 01:54:18;;;;;;;2.90;1.60;;;-2.00;99.90;;;;;;5072091;28;20070;-49
2021/12/04 01:56:45;;;;;;;4.65;2.00;;;-2.00;99.90;;;;;;5071514;28;20044;-49
2021/12/04 01:59:12;;;;;;;2.97;1.42;;;-2.00;99.90;;;;;;5071876;28;20045;-49
2021/12/04 02:01:39;;;;;;;5.20;1.85;;;-1.90;99.90;;;;;;5071846;28;20045;-49
2021/12/04 02:04:06;;;;;;;3.47;1.50;;;-1.90;99.90;;;;;;5071795;28;20055;-49
2021/12/04 02:06:33;;;;;;;2.28;1.48;;;-1.90;99.90;;;;;;5071507;28;20052;-48
2021/12/04 02:09:00;;;;;;;2.42;1.13;;;-1.90;99.90;;;;;;5072023;28;20068;-49
2021/12/04 02:11:27;;;;;;;10.02;1.52;;;-1.90;99.90;;;;;;5071956;28;20405;-49
2021/12/04 02:13:54;;;;;;;5.63;1.90;;;-1.80;99.90;;;;;;5071613;28;20090;-49
2021/12/04 02:16:22;;;;;;;2.80;1.08;;;-1.80;99.90;;;;;;5071435;28;20044;-50
2021/12/04 02:18:50;;;;;;;2.42;1.40;;;-1.80;99.90;;;;;;5071681;28;20044;-49
2021/12/04 02:21:17;;;;;;;3.22;1.55;;;-1.70;99.90;;;;;;5071547;28;20048;-50
2021/12/04 02:23:44;;;;;;;;;;;-1.70;99.90;;;;;;5072026;28;20490;-49
2021/12/04 02:26:13;;;;;;;4.13;1.38;;;-1.70;99.90;;;;;;5071089;28;19928;-49
2021/12/04 02:28:45;;;;;;;5.32;1.67;;;-1.70;99.90;;;;;;5071511;28;20087;-49
2021/12/04 02:31:16;;;;;;;7.10;1.40;;;-1.70;99.90;;;;;;5071470;28;20094;-51
2021/12/04 02:33:43;;;;;;;8.30;1.58;;;-1.70;99.90;;;;;;5071388;28;20047;-49
2021/12/04 02:36:10;;;;;;;4.50;1.23;;;-1.70;99.90;;;;;;5071092;28;20557;-48
2021/12/04 02:38:37;;;;;;;9.15;1.95;;;-1.60;99.90;;;;;;5071471;28;20101;-51
2021/12/04 02:41:05;;;;;;;2.38;1.17;;;-1.60;99.90;;;;;;5071237;28;20421;-51
2021/12/04 02:43:34;;;;;;;4.63;1.30;;;-1.60;99.90;;;;;;5071478;28;20048;-49
2021/12/04 02:46:01;;;;;;;4.55;1.50;;;-1.60;99.90;;;;;;5070694;28;20123;-49
2021/12/04 02:48:28;;;;;;;;;;;-1.60;99.90;;;;;;5067978;28;20044;-49
2021/12/04 02:50:55;;;;;;;8.35;2.20;;;-1.60;99.90;;;;;;5069791;28;19920;-49
2021/12/04 02:53:22;;;;;;;3.13;1.33;;;-1.60;99.90;;;;;;5061788;28;20052;-51
2021/12/04 02:55:52;;;;;;;3.33;1.48;;;-1.60;99.90;;;;;;5070245;28;20086;-48
2021/12/04 02:58:20;;;;;;;4.30;1.42;;;-1.60;99.90;;;;;;5063993;28;20052;-49
2021/12/04 03:00:50;;;;;;;2.97;1.45;;;-1.60;99.90;;;;;;5071174;28;20094;-49
2021/12/04 03:03:19;;;;;;;4.60;1.70;;;-1.60;99.90;;;;;;5071255;28;20123;-50
2021/12/04 03:05:50;;;;;;;5.03;1.88;;;-1.60;99.90;;;;;;5070840;28;20051;-50
2021/12/04 03:08:21;;;;;;;5.50;1.40;;;-1.60;99.90;;;;;;5071340;28;20080;-51
2021/12/04 03:10:50;;;;;;;2.78;1.33;;;-1.60;99.90;;;;;;5070916;28;20304;-49
2021/12/04 03:13:19;;;;;;;;;;;-1.60;99.90;;;;;;5071583;28;20041;-49
2021/12/04 03:15:49;;;;;;;2.08;1.27;;;-1.50;99.90;;;;;;5070644;28;19920;-49
2021/12/04 03:18:16;;;;;;;5.68;1.20;;;-1.40;99.90;;;;;;5071172;28;20079;-48
2021/12/04 03:20:45;;;;;;;2.40;1.20;;;-1.40;99.90;;;;;;5099912;22;20054;-51
2021/12/04 03:23:28;;;;;;;5.00;1.40;;;-1.30;99.90;;;;;;5131652;27;20089;-51
2021/12/04 03:25:57;;;;;;;4.57;1.50;;;-1.30;99.90;;;;;;5131063;27;20084;-50
2021/12/04 03:28:25;;;;;;;3.85;1.40;;;-1.40;99.90;;;;;;5130688;28;20541;-52
2021/12/04 03:42:07;;;;;;;7.75;2.05;;;-1.50;99.90;;;;;;5109619;28;20497;-51
2021/12/04 03:44:34;;;;;;;6.65;1.92;;;-1.50;99.90;;;;;;5110588;28;20047;-52
2021/12/04 03:47:01;;;;;;;3.45;1.85;;;-1.50;99.90;;;;;;5109765;28;20043;-52
2021/12/04 03:49:28;;;;;;;3.60;1.60;;;-1.50;99.90;;;;;;5111128;28;20051;-52
2021/12/04 03:51:55;;;;;;;3.13;1.77;;;-1.50;99.90;;;;;;5111879;28;20545;-53
2021/12/04 03:54:22;;;;;;;3.88;1.88;;;-1.50;99.90;;;;;;5115151;28;20114;-52
2021/12/04 03:57:02;;;;;;;3.50;1.60;;;-1.40;99.90;;;;;;5113061;28;20043;-53
2021/12/04 03:59:35;;;;;;;4.38;1.70;;;-1.40;99.90;;;;;;5114899;28;20047;-53
2021/12/04 04:02:04;;;;;;;3.08;1.63;;;-1.40;99.90;;;;;;5114838;28;20047;-53
2021/12/04 04:04:32;;;;;;;4.50;1.75;;;-1.40;99.90;;;;;;5115047;28;20142;-53
2021/12/04 04:07:00;;;;;;;4.28;1.63;;;-1.30;99.90;;;;;;5114228;28;20044;-53
2021/12/04 04:09:27;;;;;;;;;;;-1.30;99.90;;;;;;5115164;28;20386;-52
2021/12/04 04:11:55;;;;;;;4.00;1.45;;;-1.30;99.90;;;;;;5114751;28;19919;-52
2021/12/04 04:14:24;;;;;;;4.05;1.50;;;-1.20;99.90;;;;;;5114649;28;20078;-50
2021/12/04 04:16:53;;;;;;;7.68;1.70;;;-1.20;99.90;;;;;;5114319;28;20549;-53
2021/12/04 04:19:21;;;;;;;4.95;1.70;;;-1.30;99.90;;;;;;5114609;28;20071;-51
2021/12/04 04:21:53;;;;;;;3.78;1.80;;;-1.30;99.90;;;;;;5114166;28;20047;-52
2021/12/04 04:24:20;;;;;;;3.67;1.90;;;-1.20;99.90;;;;;;5114353;28;20050;-51
2021/12/04 04:26:46;;;;;;;6.55;1.77;;;-1.10;99.90;;;;;;5113841;28;20462;-52
2021/12/04 04:29:14;;;;;;;4.07;1.63;;;-1.10;99.90;;;;;;5112770;28;20100;-52
2021/12/04 04:31:49;;;;;;;6.22;1.55;;;-1.10;99.90;;;;;;5114218;28;20043;-50
2021/12/04 04:34:23;;;;;;;3.72;1.75;;;-1.10;99.90;;;;;;5114308;28;20044;-54
2021/12/04 04:37:06;;;;;;;2.97;1.58;;;-1.10;99.90;;;;;;5114024;28;20561;-49
2021/12/04 04:59:14;;;;;;;7.45;1.70;;;-1.00;99.90;;;;;;5113751;28;20130;-55
2021/12/04 05:02:06;;;;;;;4.13;1.90;;;-1.10;99.90;;;;;;5113219;28;20497;-50
2021/12/04 05:10:37;;;;;;;13.77;2.30;;;-1.00;99.90;;;;;;5113127;28;20040;-50
2021/12/04 05:13:15;;;;;;;3.97;1.60;;;-0.80;99.90;;;;;;5113073;28;20043;-52
2021/12/04 05:20:49;;;;;;;5.40;1.63;;;-0.60;99.90;;;;;;5113138;28;20536;-53
2021/12/04 05:23:16;;;;;;;5.15;2.35;;;-0.60;99.90;;;;;;5113076;28;20516;-52
2021/12/04 05:25:43;;;;;;;6.93;2.70;;;-0.60;99.90;;;;;;5112847;28;20096;-53
2021/12/04 05:28:10;;;;;;;7.72;2.25;;;-0.70;99.90;;;;;;5113280;28;20085;-51
2021/12/04 05:30:37;;;;;;;4.32;1.90;;;-0.70;99.90;;;;;;5113136;28;20040;-53
2021/12/04 05:33:05;;;;;;;3.25;1.70;;;-0.70;99.90;;;;;;5112908;28;20485;-51
2021/12/04 05:35:32;;;;;;;;;;;-0.70;99.90;;;;;;5113089;28;20132;-55
2021/12/04 05:37:59;;;;;;;7.38;2.05;;;-0.60;99.90;;;;;;5111914;28;20014;-53
2021/12/04 05:40:26;;;;;;;;;;;-0.60;99.90;;;;;;5113418;28;20040;-53
2021/12/04 05:43:00;;;;;;;7.20;2.08;;;-0.50;99.90;;;;;;5112833;28;19919;-50
2021/12/04 05:45:29;;;;;;;5.20;2.00;;;-0.40;99.90;;;;;;5112644;28;20492;-54
2021/12/04 05:48:05;;;;;;;5.75;1.80;;;-0.30;99.90;;;;;;5112867;28;20047;-53
2021/12/04 05:53:16;;;;;;;2.30;1.20;;;-0.40;99.90;;;;;;5113126;28;20532;-54
2021/12/04 05:55:56;;;;;;;2.53;1.17;;;-0.40;99.90;;;;;;5112335;28;20082;-52
2021/12/04 05:58:30;;;;;;;2.63;1.23;;;-0.40;99.90;;;;;;5112618;28;20450;-53
2021/12/04 06:01:01;;;;;;;4.70;1.40;;;-0.40;99.90;;;;;;5112579;27;20481;-54
2021/12/04 06:03:28;;;;;;;6.63;1.50;;;-0.40;99.90;;;;;;5112654;28;20075;-53
2021/12/04 06:05:55;;;;;;;;;;;-0.40;99.90;;;;;;5112624;28;20043;-54
2021/12/04 06:08:22;;;;;;;2.88;1.35;;;-0.30;99.90;;;;;;5112495;28;19943;-51
2021/12/04 06:10:51;;;;;;;6.85;1.67;;;-0.30;99.90;;;;;;5112386;28;20046;-52
2021/12/04 06:13:19;;;;;;;3.00;1.20;;;-0.30;99.90;;;;;;5112214;28;20040;-52
2021/12/04 06:15:46;;;;;;;1.92;1.27;;;-0.30;99.90;;;;;;5111621;28;20036;-53
2021/12/04 06:18:15;;;;;;;4.70;1.60;;;-0.30;99.90;;;;;;5112350;28;20047;-54
2021/12/04 06:23:29;;;;;;;2.80;1.10;;;-0.30;99.90;;;;;;5112198;28;20489;-51
2021/12/04 06:25:56;;;;;;;;;;;-0.30;99.90;;;;;;5112306;28;20135;-50
2021/12/04 06:28:23;;;;;;;4.63;1.40;;;-0.20;99.90;;;;;;5111916;28;19923;-53
2021/12/04 06:30:53;;;;;;;3.28;1.40;;;-0.20;99.90;;;;;;5112111;28;20043;-52
2021/12/04 06:33:26;;;;;;;4.13;1.52;;;-0.10;99.90;;;;;;5112124;28;20124;-52
2021/12/04 06:35:53;;;;;;;3.60;1.10;;;0.00;99.90;;;;;;5111685;28;20096;-51
2021/12/04 06:38:20;;;;;;;2.80;1.10;;;0.00;99.90;;;;;;5112051;28;20085;-51
2021/12/04 06:40:49;;;;;;;3.50;1.20;;;-0.10;99.90;;;;;;5111968;28;20039;-53
2021/12/04 06:43:16;;;;;;;2.45;1.02;;;-0.10;99.90;;;;;;5111891;28;20048;-51
2021/12/04 06:45:47;;;;;;;2.33;1.10;;;0.00;99.90;;;;;;5111551;28;20501;-50
2021/12/04 06:48:22;;;;;;;5.88;2.20;;;0.00;99.90;;;;;;5111878;28;20043;-50
2021/12/04 06:50:54;;;;;;;5.47;2.25;;;0.10;99.90;;;;;;5112150;28;20048;-50
2021/12/04 06:55:54;;;;;;;2.75;1.08;;;0.10;99.90;;;;;;5111853;28;20038;-54
2021/12/04 06:58:22;;;;;;;3.13;1.15;;;0.20;99.90;;;;;;5110579;28;20451;-51
2021/12/04 07:00:51;;;;;;;4.55;1.60;;;0.20;99.90;;;;;;5111778;28;20083;-53
2021/12/04 07:03:19;;;;;;;6.65;1.40;;;0.20;99.90;;;;;;5111843;28;20508;-51
2021/12/04 07:05:46;;;;;;;7.65;1.52;;;0.20;99.90;;;;;;5111271;28;20040;-51
2021/12/04 07:08:14;;;;;;;5.43;1.85;;;0.20;99.90;;;;;;5111734;28;20043;-53
2021/12/04 07:10:41;;;;;;;16.42;5.28;;;0.20;99.90;;;;;;5111626;28;20044;-50
2021/12/04 07:13:08;;;;;;;5.57;2.75;;;0.20;99.90;;;;;;5111690;28;20454;-53
2021/12/04 07:15:35;;;;;;;;;;;0.20;99.90;;;;;;5111636;28;20068;-53
2021/12/04 07:18:03;;;;;;;11.55;5.05;;;0.20;99.90;;;;;;5111561;28;19927;-53
2021/12/04 07:20:31;;;;;;;16.35;6.35;;;0.20;99.90;;;;;;5111456;28;20039;-51
2021/12/04 07:22:59;;;;;;;29.88;9.80;;;0.20;99.90;;;;;;5111712;28;20100;-51
2021/12/04 07:25:27;;;;;;;30.70;9.23;;;0.20;99.90;;;;;;5111142;28;20050;-49
2021/12/04 07:27:54;;;;;;;20.70;8.88;;;0.30;99.90;;;;;;5114019;28;20047;-51
2021/12/04 07:30:23;;;;;;;9.35;4.72;;;0.30;99.90;;;;;;5115622;28;20108;-51
2021/12/04 07:32:51;;;;;;;21.92;7.15;;;0.20;99.90;;;;;;5115506;28;20048;-51
2021/12/04 07:35:18;;;;;;;33.60;8.68;;;0.20;99.90;;;;;;5114740;28;20039;-52
2021/12/04 07:37:45;;;;;;;7.82;3.92;;;0.20;99.90;;;;;;5114754;28;20447;-50
2021/12/04 07:40:12;;;;;;;13.23;4.22;;;0.10;99.90;;;;;;5113330;28;20035;-54
2021/12/04 07:42:39;;;;;;;13.82;5.90;;;0.20;99.90;;;;;;5113487;28;20043;-51
2021/12/04 07:45:07;;;;;;;26.15;8.05;;;0.20;99.90;;;;;;5113091;28;20036;-52
2021/12/04 07:47:35;;;;;;;8.35;2.97;;;0.30;99.90;;;;;;5113289;28;20485;-49
2021/12/04 07:50:04;;;;;;;6.90;3.80;;;0.40;99.90;;;;;;5113794;28;20382;-50
2021/12/04 07:52:31;;;;;;;7.88;3.38;;;0.40;99.90;;;;;;5113798;27;20044;-52
2021/12/04 07:54:58;;;;;;;5.35;1.60;;;0.50;99.90;;;;;;5114747;28;20043;-51
2021/12/04 07:57:26;;;;;;;5.20;2.47;;;0.60;99.90;;;;;;5114568;28;20044;-52
2021/12/04 07:59:52;;;;;;;;;;;0.60;99.90;;;;;;5115384;27;20097;-54
2021/12/04 08:02:19;;;;;;;8.35;2.40;;;0.60;99.90;;;;;;5114359;28;19920;-51
2021/12/04 08:04:47;;;;;;;6.60;2.13;;;0.70;99.90;;;;;;5114944;27;20051;-48
2021/12/04 08:07:13;;;;;;;3.63;1.73;;;0.80;99.90;;;;;;5114096;28;20043;-52
2021/12/04 08:09:40;;;;;;;8.10;2.53;;;0.80;99.90;;;;;;5114764;28;20130;-55
2021/12/04 08:12:09;;;;;;;7.85;2.50;;;0.80;99.90;;;;;;5114603;28;20558;-54
2021/12/04 08:14:38;;;;;;;7.47;2.30;;;0.80;99.90;;;;;;5114747;27;20039;-52
2021/12/04 08:17:05;;;;;;;5.38;2.47;;;0.80;99.90;;;;;;5114151;28;20048;-53
2021/12/04 08:19:32;;;;;;;10.38;2.05;;;0.90;99.90;;;;;;5114571;28;20500;-51
2021/12/04 08:21:59;;;;;;;6.07;2.25;;;0.80;99.90;;;;;;5114331;28;20069;-52
2021/12/04 08:24:26;;;;;;;6.68;2.10;;;0.90;99.90;;;;;;5114475;27;20593;-49
2021/12/04 08:26:54;;;;;;;9.82;2.35;;;0.90;99.90;;;;;;5114024;28;20095;-52
2021/12/04 08:29:21;;;;;;;2.65;1.70;;;1.00;99.90;;;;;;5114280;28;20518;-48
2021/12/04 08:31:50;;;;;;;4.07;2.00;;;1.10;99.90;;;;;;5114375;28;20051;-51
2021/12/04 08:34:18;;;;;;;3.97;2.17;;;1.10;99.90;;;;;;5114274;28;20036;-51
2021/12/04 08:36:46;;;;;;;4.15;1.88;;;1.10;99.90;;;;;;5113836;28;20047;-52
2021/12/04 08:39:12;;;;;;;3.83;1.85;;;1.20;99.90;;;;;;5113816;28;20046;-54
2021/12/04 08:41:40;;;;;;;4.60;2.15;;;1.20;99.90;;;;;;5114207;28;20051;-51
2021/12/04 08:44:08;;;;;;;5.15;1.83;;;1.20;99.90;;;;;;5114045;28;20039;-54
2021/12/04 08:46:37;;;;;;;4.70;2.13;;;1.20;99.90;;;;;;5113704;28;20085;-51
2021/12/04 08:49:06;;;;;;;4.03;1.83;;;1.20;99.90;;;;;;5114055;28;20040;-52
2021/12/04 08:51:35;;;;;;;5.50;1.80;;;1.20;99.90;;;;;;5113067;28;20051;-54
2021/12/04 08:54:03;;;;;;;6.30;2.15;;;1.20;99.90;;;;;;5113920;28;20124;-53
2021/12/04 08:56:33;;;;;;;6.07;2.13;;;1.20;99.90;;;;;;5113444;28;20040;-51
2021/12/04 08:59:02;;;;;;;4.95;2.00;;;1.20;99.90;;;;;;5113985;28;20043;-53
2021/12/04 09:01:35;;;;;;;3.70;1.50;;;1.20;99.90;;;;;;5113755;28;20044;-53
2021/12/04 09:04:09;;;;;;;2.75;1.40;;;1.30;99.90;;;;;;5113774;28;20039;-54
2021/12/04 09:06:37;;;;;;;8.38;2.67;;;1.30;99.90;;;;;;5113285;28;20104;-53
2021/12/04 09:09:06;;;;;;;4.35;2.10;;;1.40;99.90;;;;;;5113740;28;20044;-52
2021/12/04 09:11:37;;;;;;;5.30;1.73;;;1.40;99.90;;;;;;5113452;28;20046;-49
2021/12/04 09:14:05;;;;;;;5.55;1.48;;;1.50;99.90;;;;;;5113673;28;20052;-49
2021/12/04 09:16:33;;;;;;;2.22;1.60;;;1.40;99.90;;;;;;5086249;28;20113;-53
2021/12/04 09:19:00;;;;;;;2.80;1.73;;;1.40;99.90;;;;;;5104705;28;20052;-52
2021/12/04 09:25:46;;;;;;;4.10;1.70;;;1.60;99.90;;;;;;5061839;28;20449;-52
2021/12/04 09:28:26;;;;;;;5.28;1.70;;;1.80;99.90;;;;;;5113194;28;20047;-51
2021/12/04 09:34:03;;;;;;;3.75;1.92;;;1.90;99.90;;;;;;5092733;28;20048;-51
2021/12/04 10:01:32;;;;;;;5.03;2.75;;;1.80;99.90;;;;;;5110055;28;20489;-50
2021/12/04 10:15:59;;;;;;;8.63;4.70;;;2.00;99.90;;;;;;5090523;28;20576;-51
2021/12/04 10:24:23;;;;;;;4.05;2.10;;;2.20;99.90;;;;;;5101055;28;20044;-52
2021/12/04 10:34:58;;;;;;;4.85;2.40;;;2.30;99.90;;;;;;5112006;28;20046;-54
2021/12/04 10:37:28;;;;;;;7.70;4.30;;;2.30;99.90;;;;;;5111686;28;20447;-49
2021/12/04 10:39:59;;;;;;;5.72;2.63;;;2.50;99.90;;;;;;5110817;28;20048;-49
2021/12/04 10:42:33;;;;;;;8.02;2.67;;;2.50;99.90;;;;;;5109277;28;20054;-49
2021/12/04 10:45:01;;;;;;;4.22;1.70;;;2.50;99.90;;;;;;5111540;28;20039;-50
2021/12/04 10:47:28;;;;;;;5.07;2.45;;;2.50;99.90;;;;;;5111544;28;20032;-50
2021/12/04 10:52:59;;;;;;;3.67;2.00;;;2.60;99.90;;;;;;5111272;28;20056;-51
2021/12/04 11:41:32;;;;;;;7.53;2.95;;;2.70;99.90;;;;;;5115301;28;20054;-52
2021/12/04 11:44:10;;;;;;;7.35;3.05;;;2.70;99.90;;;;;;5094808;28;20044;-50
2021/12/04 11:46:50;;;;;;;5.40;2.17;;;2.70;99.90;;;;;;5094378;28;20072;-52
2021/12/04 11:49:20;;;;;;;4.43;2.40;;;2.60;99.90;;;;;;5094748;28;20105;-50
2021/12/04 11:51:57;;;;;;;7.10;2.55;;;2.60;99.90;;;;;;5100176;28;20071;-55
2021/12/04 11:54:30;;;;;;;7.35;3.00;;;2.60;99.90;;;;;;5113494;28;20042;-50
2021/12/04 11:57:12;;;;;;;4.63;1.75;;;2.60;99.90;;;;;;5111698;28;20120;-51
2021/12/04 11:59:42;;;;;;;8.15;3.15;;;2.60;99.90;;;;;;5112408;28;20031;-54
2021/12/04 12:02:19;;;;;;;7.72;2.53;;;2.60;99.90;;;;;;5114298;28;20044;-50
2021/12/04 12:04:53;;;;;;;4.57;1.92;;;2.70;99.90;;;;;;5114565;28;20046;-51
2021/12/04 12:07:29;;;;;;;5.25;2.28;;;2.60;99.90;;;;;;5112000;28;20042;-54
2021/12/04 12:10:12;;;;;;;4.25;2.40;;;2.60;99.90;;;;;;5112063;28;20463;-54
2021/12/04 12:12:43;;;;;;;6.28;3.03;;;2.70;99.90;;;;;;5113833;28;20035;-52
2021/12/04 12:15:32;;;;;;;9.10;2.95;;;2.70;99.90;;;;;;5114226;28;20039;-52
2021/12/04 12:18:12;;;;;;;;;;;2.70;99.90;;;;;;5114466;28;20036;-50
2021/12/04 12:21:02;;;;;;;8.02;2.97;;;2.80;99.90;;;;;;5113965;28;19927;-54
2021/12/04 12:23:32;;;;;;;6.18;3.67;;;2.70;99.90;;;;;;5112909;28;20044;-51
2021/12/04 12:26:13;;;;;;;5.25;2.05;;;2.90;99.90;;;;;;5110786;28;20031;-54
2021/12/04 12:37:21;;;;;;;7.13;3.10;;;2.80;99.90;;;;;;5111403;28;20054;-53
2021/12/04 12:40:09;;;;;;;7.85;4.25;;;2.80;99.90;;;;;;5109253;28;20036;-52
2021/12/04 12:42:38;;;;;;;6.30;2.95;;;2.80;99.90;;;;;;5113009;28;20039;-53
2021/12/04 12:45:23;;;;;;;8.85;2.65;;;2.80;99.90;;;;;;5113358;28;20089;-51
2021/12/04 12:47:59;;;;;;;15.05;6.22;;;2.80;99.90;;;;;;5112762;28;20054;-50
2021/12/04 12:50:31;;;;;;;8.52;4.07;;;2.80;99.90;;;;;;5113887;28;20040;-51
2021/12/04 12:53:10;;;;;;;9.38;4.78;;;2.80;99.90;;;;;;5113163;28;20036;-53
2021/12/04 12:55:39;;;;;;;6.32;3.00;;;2.80;99.90;;;;;;5113110;28;20054;-50
2021/12/04 12:58:24;;;;;;;6.10;2.75;;;2.70;99.90;;;;;;5113190;28;20457;-50
2021/12/04 13:12:10;;;;;;;16.55;5.25;;;2.80;99.90;;;;;;5111787;28;20056;-52
2021/12/04 13:14:40;;;;;;;12.15;3.47;;;2.70;99.90;;;;;;5111303;28;20038;-51
2021/12/04 13:17:12;;;;;;;12.32;4.15;;;2.70;99.90;;;;;;5112698;28;20036;-52
2021/12/04 13:19:42;;;;;;;10.18;3.65;;;2.60;99.90;;;;;;5112657;28;20063;-50
2021/12/04 13:22:12;;;;;;;16.48;4.60;;;2.60;99.90;;;;;;5112356;28;20043;-51
2021/12/04 13:24:42;;;;;;;22.08;4.15;;;2.60;99.90;;;;;;5111567;28;20040;-53
2021/12/04 13:30:12;;;;;;;11.70;4.93;;;2.60;99.90;;;;;;5112407;28;20123;-53
2021/12/04 13:32:41;;;;;;;13.80;5.75;;;2.60;99.90;;;;;;5109384;28;20040;-53
2021/12/04 13:35:11;;;;;;;19.88;8.05;;;2.70;99.90;;;;;;5099154;28;20085;-51
2021/12/04 13:37:39;;;;;;;20.58;10.73;;;2.70;99.90;;;;;;5097418;28;20547;-53
2021/12/04 13:40:10;;;;;;;20.38;7.15;;;2.70;99.90;;;;;;5097738;28;20040;-51
2021/12/04 13:42:38;;;;;;;18.55;9.05;;;2.60;99.90;;;;;;5097050;28;20040;-53
2021/12/04 13:45:10;;;;;;;17.55;7.18;;;2.60;99.90;;;;;;5096815;28;20112;-52
2021/12/04 13:47:37;;;;;;;13.50;5.25;;;2.70;99.90;;;;;;5110142;28;20035;-52
2021/12/04 13:53:02;;;;;;;17.75;8.50;;;2.70;99.90;;;;;;5111028;28;20467;-54
2021/12/04 13:55:30;;;;;;;14.98;7.32;;;2.60;99.90;;;;;;5110953;28;20047;-55
2021/12/04 13:57:57;;;;;;;19.55;7.30;;;2.60;99.90;;;;;;5111817;28;20032;-51
2021/12/04 14:00:24;;;;;;;11.07;5.78;;;2.50;99.90;;;;;;5111468;28;20036;-54
2021/12/04 14:02:51;;;;;;;12.48;5.55;;;2.40;99.90;;;;;;5109507;28;20039;-52
2021/12/04 14:05:21;;;;;;;;;;;2.40;99.90;;;;;;5112465;28;20123;-50
2021/12/04 14:07:54;;;;;;;13.57;5.53;;;2.30;99.90;;;;;;5112213;28;20412;-55
2021/12/04 14:10:23;;;;;;;11.82;5.57;;;2.30;99.90;;;;;;5112035;28;20085;-53
2021/12/04 14:12:50;;;;;;;18.77;7.57;;;2.30;99.90;;;;;;5109774;28;20122;-49
2021/12/04 14:15:20;;;;;;;18.95;8.50;;;2.30;99.90;;;;;;5096181;28;20048;-57
2021/12/04 14:17:50;;;;;;;16.17;8.00;;;2.30;99.90;;;;;;5091809;28;20511;-54
2021/12/04 14:20:22;;;;;;;12.88;5.90;;;2.30;99.90;;;;;;5094959;28;20035;-54
2021/12/04 14:22:52;;;;;;;11.55;5.68;;;2.20;99.90;;;;;;5108771;28;20501;-52
2021/12/04 14:25:21;;;;;;;22.75;6.38;;;2.20;99.90;;;;;;5101938;28;20043;-54
2021/12/04 14:27:49;;;;;;;13.82;5.32;;;2.20;99.90;;;;;;5105114;28;20050;-51
2021/12/04 14:30:21;;;;;;;8.93;4.35;;;2.20;99.90;;;;;;5106033;28;20040;-52
2021/12/04 14:32:55;;;;;;;8.60;5.15;;;2.20;99.90;;;;;;5102743;28;20040;-54
2021/12/04 14:35:30;;;;;;;8.98;5.40;;;2.20;99.90;;;;;;5104706;28;20039;-53
2021/12/04 14:37:59;;;;;;;18.70;5.38;;;2.20;99.90;;;;;;5110378;28;20504;-55
2021/12/04 14:40:32;;;;;;;14.57;5.65;;;2.20;99.90;;;;;;5105506;28;20397;-55
2021/12/04 14:42:59;;;;;;;13.05;5.75;;;2.20;99.90;;;;;;5110489;28;20032;-51
2021/12/04 14:45:30;;;;;;;12.65;5.55;;;2.20;99.90;;;;;;5104756;28;20095;-53
2021/12/04 14:48:09;;;;;;;20.75;8.13;;;2.20;99.90;;;;;;5110088;28;20117;-53
2021/12/04 14:50:40;;;;;;;17.55;7.07;;;2.20;99.90;;;;;;5099882;28;20073;-56
2021/12/04 14:53:11;;;;;;;17.50;8.15;;;2.20;99.90;;;;;;5110155;28;20381;-52
2021/12/04 14:55:41;;;;;;;15.38;7.32;;;2.20;99.90;;;;;;5103784;28;20581;-54
2021/12/04 14:58:13;;;;;;;18.70;6.28;;;2.10;99.90;;;;;;5109798;28;20096;-51
2021/12/04 15:00:54;;;;;;;17.13;8.25;;;2.10;99.90;;;;;;5105857;28;20036;-53
2021/12/04 15:03:48;;;;;;;16.92;7.45;;;2.10;99.90;;;;;;5101782;28;20032;-55
2021/12/04 15:06:18;;;;;;;18.73;8.82;;;2.10;99.90;;;;;;5085785;28;20039;-53
2021/12/04 15:09:04;;;;;;;25.42;11.40;;;2.10;99.90;;;;;;5102589;28;20050;-55
2021/12/04 15:11:34;;;;;;;18.38;7.95;;;2.10;99.90;;;;;;5092660;28;20097;-53
2021/12/04 15:14:15;;;;;;;19.52;7.32;;;2.10;99.90;;;;;;5094444;28;20039;-54
2021/12/04 15:16:58;;;;;;;13.32;6.90;;;2.10;99.90;;;;;;5099218;28;20501;-52
2021/12/04 15:19:39;;;;;;;15.30;7.43;;;2.10;99.90;;;;;;5103670;28;20036;-53
2021/12/04 15:22:13;;;;;;;13.60;6.88;;;2.00;99.90;;;;;;5117536;22;20036;-51
2021/12/04 15:24:43;;;;;;;21.33;7.95;;;2.10;99.90;;;;;;5105418;28;20801;-54
2021/12/04 15:27:15;;;;;;;14.82;6.53;;;2.10;99.90;;;;;;5097538;28;20040;-52
2021/12/04 15:29:46;;;;;;;14.73;7.40;;;2.10;99.90;;;;;;5099807;28;20493;-52
2021/12/04 15:32:19;;;;;;;21.27;8.55;;;2.10;99.90;;;;;;5104398;28;20081;-52
2021/12/04 15:35:05;;;;;;;17.27;9.30;;;2.10;99.90;;;;;;5110059;28;20063;-51
2021/12/04 15:37:55;;;;;;;33.13;14.80;;;2.20;99.90;;;;;;5091690;28;20039;-53
2021/12/04 15:40:28;;;;;;;30.65;10.93;;;2.20;99.90;;;;;;5108527;28;20085;-54
2021/12/04 15:46:00;;;;;;;14.00;6.43;;;2.20;99.90;;;;;;5098999;28;20039;-52
2021/12/04 15:48:56;;;;;;;21.27;7.05;;;2.20;99.90;;;;;;5105124;28;20067;-53
2021/12/04 15:54:02;;;;;;;23.08;6.88;;;2.10;99.90;;;;;;5109211;28;20054;-51
2021/12/04 15:56:49;;;;;;;17.35;7.65;;;2.10;99.90;;;;;;5106224;28;20497;-53
2021/12/04 15:59:18;;;;;;;17.60;7.67;;;2.10;99.90;;;;;;5111598;28;20409;-52
2021/12/04 16:01:46;;;;;;;28.35;12.90;;;2.10;99.90;;;;;;5100393;28;20313;-51
2021/12/04 16:04:21;;;;;;;46.92;20.23;;;2.20;99.90;;;;;;5108300;28;20043;-53
2021/12/04 16:06:49;;;;;;;39.97;18.20;;;2.10;99.90;;;;;;5104218;28;20115;-50
2021/12/04 16:09:28;;;;;;;47.75;19.63;;;2.20;99.90;;;;;;5109951;28;20413;-51
2021/12/04 16:12:02;;;;;;;44.95;17.92;;;2.10;99.90;;;;;;5112105;28;20142;-53
2021/12/04 16:14:36;;;;;;;36.80;16.38;;;2.10;99.90;;;;;;5088025;28;20395;-53
2021/12/04 16:17:04;;;;;;;36.67;16.17;;;2.10;99.90;;;;;;5110187;28;20047;-51
2021/12/04 16:19:36;;;;;;;43.53;20.05;;;2.10;99.90;;;;;;5084098;28;20573;-55
2021/12/04 16:22:07;;;;;;;54.17;27.88;;;2.10;99.90;;;;;;5111376;28;20040;-53
2021/12/04 16:24:39;;;;;;;50.13;26.23;;;2.10;99.90;;;;;;5104703;28;20062;-50
2021/12/04 16:27:17;;;;;;;50.28;22.77;;;2.10;99.90;;;;;;5110293;28;20043;-51
2021/12/04 16:29:55;;;;;;;39.70;20.25;;;2.10;99.90;;;;;;5103070;28;20040;-53